sensor_id;sensor_type;location;lat;lon;timestamp;P1;durP1;ratioP1;P2;durP2;ratioP2
68938;SDS011;59064;45.294;11.816;2024-03-29T00:02:05;21.50;;;11.60;;
68938;SDS011;59064;45.294;11.816;2024-03-29T00:04:34;20.80;;;13.80;;
68938;SDS011;59064;45.294;11.816;2024-03-29T00:06:59;22.60;;;14.60;;
68938;SDS011;59064;45.294;11.816;2024-03-29T00:09:25;18.50;;;11.40;;
68938;SDS011;59064;45.294;11.816;2024-03-29T00:11:50;20.70;;;13.00;;
68938;SDS011;59064;45.294;11.816;2024-03-29T00:14:16;13.30;;;8.80;;
68938;SDS011;59064;45.294;11.816;2024-03-29T00:16:41;20.60;;;12.20;;
68938;SDS011;59064;45.294;11.816;2024-03-29T00:19:07;21.30;;;14.70;;
68938;SDS011;59064;45.294;11.816;2024-03-29T00:21:32;25.90;;;17.50;;
68938;SDS011;59064;45.294;11.816;2024-03-29T00:23:57;21.70;;;14.40;;
68938;SDS011;59064;45.294;11.816;2024-03-29T00:26:23;20.80;;;14.60;;
68938;SDS011;59064;45.294;11.816;2024-03-29T00:28:48;19.90;;;12.00;;
68938;SDS011;59064;45.294;11.816;2024-03-29T00:31:14;20.10;;;11.70;;
68938;SDS011;59064;45.294;11.816;2024-03-29T00:33:40;16.80;;;10.30;;
68938;SDS011;59064;45.294;11.816;2024-03-29T00:36:05;26.70;;;17.70;;
68938;SDS011;59064;45.294;11.816;2024-03-29T00:38:31;24.40;;;11.70;;
68938;SDS011;59064;45.294;11.816;2024-03-29T00:40:56;25.90;;;15.60;;
68938;SDS011;59064;45.294;11.816;2024-03-29T00:43:22;17.90;;;12.10;;
68938;SDS011;59064;45.294;11.816;2024-03-29T00:45:47;25.60;;;14.00;;
68938;SDS011;59064;45.294;11.816;2024-03-29T00:48:12;28.50;;;16.10;;
68938;SDS011;59064;45.294;11.816;2024-03-29T00:50:40;19.30;;;12.40;;
68938;SDS011;59064;45.294;11.816;2024-03-29T00:53:06;22.50;;;12.10;;
68938;SDS011;59064;45.294;11.816;2024-03-29T00:55:31;26.20;;;15.90;;
68938;SDS011;59064;45.294;11.816;2024-03-29T00:57:56;22.00;;;12.50;;
68938;SDS011;59064;45.294;11.816;2024-03-29T01:00:22;28.30;;;16.60;;
68938;SDS011;59064;45.294;11.816;2024-03-29T01:02:48;18.20;;;11.30;;
68938;SDS011;59064;45.294;11.816;2024-03-29T01:05:13;24.50;;;14.00;;
68938;SDS011;59064;45.294;11.816;2024-03-29T01:07:42;19.30;;;11.10;;
68938;SDS011;59064;45.294;11.816;2024-03-29T01:10:08;28.50;;;16.50;;
68938;SDS011;59064;45.294;11.816;2024-03-29T01:12:34;28.80;;;16.60;;
68938;SDS011;59064;45.294;11.816;2024-03-29T01:15:01;35.80;;;22.40;;
68938;SDS011;59064;45.294;11.816;2024-03-29T01:17:28;31.50;;;20.10;;
68938;SDS011;59064;45.294;11.816;2024-03-29T01:19:54;32.50;;;20.00;;
68938;SDS011;59064;45.294;11.816;2024-03-29T01:22:19;32.20;;;18.60;;
68938;SDS011;59064;45.294;11.816;2024-03-29T01:24:45;38.90;;;22.10;;
68938;SDS011;59064;45.294;11.816;2024-03-29T01:27:10;39.00;;;23.00;;
68938;SDS011;59064;45.294;11.816;2024-03-29T01:29:36;39.50;;;22.60;;
68938;SDS011;59064;45.294;11.816;2024-03-29T01:32:02;34.00;;;21.40;;
68938;SDS011;59064;45.294;11.816;2024-03-29T01:34:28;35.40;;;22.20;;
68938;SDS011;59064;45.294;11.816;2024-03-29T01:36:54;37.30;;;24.60;;
68938;SDS011;59064;45.294;11.816;2024-03-29T01:39:19;37.00;;;24.00;;
68938;SDS011;59064;45.294;11.816;2024-03-29T01:41:49;32.20;;;20.70;;
68938;SDS011;59064;45.294;11.816;2024-03-29T01:44:15;34.80;;;22.20;;
68938;SDS011;59064;45.294;11.816;2024-03-29T01:46:40;33.90;;;21.70;;
68938;SDS011;59064;45.294;11.816;2024-03-29T01:49:06;37.00;;;23.50;;
68938;SDS011;59064;45.294;11.816;2024-03-29T01:51:34;34.60;;;21.30;;
68938;SDS011;59064;45.294;11.816;2024-03-29T01:54:02;34.90;;;21.60;;
68938;SDS011;59064;45.294;11.816;2024-03-29T01:56:28;34.00;;;21.30;;
68938;SDS011;59064;45.294;11.816;2024-03-29T02:01:26;34.80;;;22.70;;
68938;SDS011;59064;45.294;11.816;2024-03-29T02:04:32;32.30;;;20.60;;
68938;SDS011;59064;45.294;11.816;2024-03-29T02:06:57;33.30;;;20.30;;
68938;SDS011;59064;45.294;11.816;2024-03-29T02:09:23;33.60;;;21.80;;
68938;SDS011;59064;45.294;11.816;2024-03-29T02:11:48;33.90;;;21.40;;
68938;SDS011;59064;45.294;11.816;2024-03-29T02:14:16;32.10;;;20.20;;
68938;SDS011;59064;45.294;11.816;2024-03-29T02:16:41;38.60;;;23.10;;
68938;SDS011;59064;45.294;11.816;2024-03-29T02:19:07;38.70;;;23.60;;
68938;SDS011;59064;45.294;11.816;2024-03-29T02:21:33;42.30;;;26.20;;
68938;SDS011;59064;45.294;11.816;2024-03-29T02:24:06;34.40;;;22.40;;
68938;SDS011;59064;45.294;11.816;2024-03-29T02:26:33;34.70;;;22.70;;
68938;SDS011;59064;45.294;11.816;2024-03-29T02:29:02;43.80;;;26.90;;
68938;SDS011;59064;45.294;11.816;2024-03-29T02:31:29;44.40;;;27.40;;
68938;SDS011;59064;45.294;11.816;2024-03-29T02:33:54;43.50;;;26.60;;
68938;SDS011;59064;45.294;11.816;2024-03-29T02:36:20;41.20;;;25.70;;
68938;SDS011;59064;45.294;11.816;2024-03-29T02:38:45;33.30;;;21.10;;
68938;SDS011;59064;45.294;11.816;2024-03-29T02:41:11;43.50;;;28.90;;
68938;SDS011;59064;45.294;11.816;2024-03-29T02:43:37;44.10;;;26.50;;
68938;SDS011;59064;45.294;11.816;2024-03-29T02:46:02;42.30;;;26.60;;
68938;SDS011;59064;45.294;11.816;2024-03-29T02:48:28;45.90;;;28.20;;
68938;SDS011;59064;45.294;11.816;2024-03-29T02:50:53;45.70;;;28.40;;
68938;SDS011;59064;45.294;11.816;2024-03-29T02:53:19;44.40;;;28.30;;
68938;SDS011;59064;45.294;11.816;2024-03-29T02:55:45;53.60;;;33.00;;
68938;SDS011;59064;45.294;11.816;2024-03-29T02:58:11;41.80;;;25.80;;
68938;SDS011;59064;45.294;11.816;2024-03-29T03:00:36;55.00;;;34.70;;
68938;SDS011;59064;45.294;11.816;2024-03-29T03:03:02;49.60;;;30.20;;
68938;SDS011;59064;45.294;11.816;2024-03-29T03:05:29;51.20;;;30.00;;
68938;SDS011;59064;45.294;11.816;2024-03-29T03:07:54;45.10;;;29.50;;
68938;SDS011;59064;45.294;11.816;2024-03-29T03:10:47;45.70;;;28.60;;
68938;SDS011;59064;45.294;11.816;2024-03-29T03:13:25;47.90;;;29.40;;
68938;SDS011;59064;45.294;11.816;2024-03-29T03:15:51;37.80;;;22.90;;
68938;SDS011;59064;45.294;11.816;2024-03-29T03:18:17;45.80;;;29.40;;
68938;SDS011;59064;45.294;11.816;2024-03-29T03:20:42;52.30;;;33.30;;
68938;SDS011;59064;45.294;11.816;2024-03-29T03:23:19;40.80;;;25.50;;
68938;SDS011;59064;45.294;11.816;2024-03-29T03:25:55;49.30;;;30.60;;
68938;SDS011;59064;45.294;11.816;2024-03-29T03:28:21;49.50;;;30.90;;
68938;SDS011;59064;45.294;11.816;2024-03-29T03:30:48;47.40;;;27.40;;
68938;SDS011;59064;45.294;11.816;2024-03-29T03:33:17;54.40;;;33.00;;
68938;SDS011;59064;45.294;11.816;2024-03-29T03:35:43;50.00;;;31.10;;
68938;SDS011;59064;45.294;11.816;2024-03-29T03:38:09;53.80;;;34.00;;
68938;SDS011;59064;45.294;11.816;2024-03-29T03:40:35;48.20;;;31.00;;
68938;SDS011;59064;45.294;11.816;2024-03-29T03:43:04;45.70;;;28.60;;
68938;SDS011;59064;45.294;11.816;2024-03-29T03:45:34;46.60;;;28.00;;
68938;SDS011;59064;45.294;11.816;2024-03-29T03:48:04;54.20;;;33.30;;
68938;SDS011;59064;45.294;11.816;2024-03-29T03:50:31;53.20;;;31.80;;
68938;SDS011;59064;45.294;11.816;2024-03-29T03:52:57;47.00;;;27.40;;
68938;SDS011;59064;45.294;11.816;2024-03-29T03:55:23;45.60;;;27.90;;
68938;SDS011;59064;45.294;11.816;2024-03-29T03:57:48;53.80;;;32.70;;
68938;SDS011;59064;45.294;11.816;2024-03-29T04:00:14;49.30;;;31.30;;
68938;SDS011;59064;45.294;11.816;2024-03-29T04:02:40;53.50;;;33.70;;
68938;SDS011;59064;45.294;11.816;2024-03-29T04:05:06;54.70;;;34.50;;
68938;SDS011;59064;45.294;11.816;2024-03-29T04:07:32;51.80;;;29.10;;
68938;SDS011;59064;45.294;11.816;2024-03-29T04:09:58;51.30;;;31.30;;
68938;SDS011;59064;45.294;11.816;2024-03-29T04:12:23;39.70;;;25.90;;
68938;SDS011;59064;45.294;11.816;2024-03-29T04:14:49;48.60;;;29.20;;
68938;SDS011;59064;45.294;11.816;2024-03-29T04:17:15;48.70;;;30.80;;
68938;SDS011;59064;45.294;11.816;2024-03-29T04:19:40;35.60;;;20.20;;
68938;SDS011;59064;45.294;11.816;2024-03-29T04:22:06;51.20;;;32.60;;
68938;SDS011;59064;45.294;11.816;2024-03-29T04:24:32;51.50;;;31.60;;
68938;SDS011;59064;45.294;11.816;2024-03-29T04:26:57;48.10;;;30.40;;
68938;SDS011;59064;45.294;11.816;2024-03-29T04:29:23;28.10;;;18.30;;
68938;SDS011;59064;45.294;11.816;2024-03-29T04:31:49;44.00;;;26.70;;
68938;SDS011;59064;45.294;11.816;2024-03-29T04:34:14;26.60;;;15.40;;
68938;SDS011;59064;45.294;11.816;2024-03-29T04:36:40;42.20;;;25.20;;
68938;SDS011;59064;45.294;11.816;2024-03-29T04:39:05;44.10;;;24.40;;
68938;SDS011;59064;45.294;11.816;2024-03-29T04:41:32;32.90;;;19.50;;
68938;SDS011;59064;45.294;11.816;2024-03-29T04:44:00;34.20;;;21.10;;
68938;SDS011;59064;45.294;11.816;2024-03-29T04:46:29;36.90;;;21.70;;
68938;SDS011;59064;45.294;11.816;2024-03-29T04:48:56;41.40;;;23.10;;
68938;SDS011;59064;45.294;11.816;2024-03-29T04:51:23;41.30;;;23.70;;
68938;SDS011;59064;45.294;11.816;2024-03-29T04:53:48;66.60;;;38.30;;
68938;SDS011;59064;45.294;11.816;2024-03-29T04:56:14;62.90;;;37.60;;
68938;SDS011;59064;45.294;11.816;2024-03-29T04:58:39;61.20;;;36.10;;
68938;SDS011;59064;45.294;11.816;2024-03-29T05:01:25;61.20;;;35.80;;
68938;SDS011;59064;45.294;11.816;2024-03-29T05:03:51;57.90;;;33.10;;
68938;SDS011;59064;45.294;11.816;2024-03-29T05:06:16;63.80;;;37.90;;
68938;SDS011;59064;45.294;11.816;2024-03-29T05:08:42;61.90;;;37.80;;
68938;SDS011;59064;45.294;11.816;2024-03-29T05:11:07;71.00;;;41.80;;
68938;SDS011;59064;45.294;11.816;2024-03-29T05:13:33;64.80;;;38.40;;
68938;SDS011;59064;45.294;11.816;2024-03-29T05:15:59;63.50;;;38.30;;
68938;SDS011;59064;45.294;11.816;2024-03-29T05:18:25;57.30;;;35.40;;
68938;SDS011;59064;45.294;11.816;2024-03-29T05:20:51;71.00;;;42.00;;
68938;SDS011;59064;45.294;11.816;2024-03-29T05:23:17;71.10;;;42.40;;
68938;SDS011;59064;45.294;11.816;2024-03-29T05:25:43;64.30;;;39.20;;
68938;SDS011;59064;45.294;11.816;2024-03-29T05:28:09;61.30;;;36.60;;
68938;SDS011;59064;45.294;11.816;2024-03-29T05:30:35;67.70;;;40.80;;
68938;SDS011;59064;45.294;11.816;2024-03-29T05:33:02;70.10;;;41.80;;
68938;SDS011;59064;45.294;11.816;2024-03-29T05:35:29;62.30;;;36.40;;
68938;SDS011;59064;45.294;11.816;2024-03-29T05:37:55;71.80;;;40.50;;
68938;SDS011;59064;45.294;11.816;2024-03-29T05:40:20;64.40;;;37.90;;
68938;SDS011;59064;45.294;11.816;2024-03-29T05:42:52;74.70;;;44.60;;
68938;SDS011;59064;45.294;11.816;2024-03-29T05:47:54;72.40;;;43.50;;
68938;SDS011;59064;45.294;11.816;2024-03-29T05:50:21;76.00;;;44.30;;
68938;SDS011;59064;45.294;11.816;2024-03-29T05:52:47;72.70;;;43.30;;
68938;SDS011;59064;45.294;11.816;2024-03-29T05:55:12;69.70;;;41.80;;
68938;SDS011;59064;45.294;11.816;2024-03-29T05:57:38;72.10;;;42.40;;
68938;SDS011;59064;45.294;11.816;2024-03-29T06:00:06;71.00;;;41.60;;
68938;SDS011;59064;45.294;11.816;2024-03-29T06:02:37;72.30;;;42.50;;
68938;SDS011;59064;45.294;11.816;2024-03-29T06:05:03;65.90;;;38.70;;
68938;SDS011;59064;45.294;11.816;2024-03-29T06:07:30;67.40;;;40.70;;
68938;SDS011;59064;45.294;11.816;2024-03-29T06:09:58;66.40;;;38.90;;
68938;SDS011;59064;45.294;11.816;2024-03-29T06:12:31;65.30;;;38.70;;
68938;SDS011;59064;45.294;11.816;2024-03-29T06:14:57;51.20;;;30.80;;
68938;SDS011;59064;45.294;11.816;2024-03-29T06:17:41;69.50;;;40.80;;
68938;SDS011;59064;45.294;11.816;2024-03-29T06:20:07;60.90;;;37.50;;
68938;SDS011;59064;45.294;11.816;2024-03-29T06:22:33;60.90;;;35.10;;
68938;SDS011;59064;45.294;11.816;2024-03-29T06:24:59;67.20;;;39.10;;
68938;SDS011;59064;45.294;11.816;2024-03-29T06:27:32;62.40;;;35.20;;
68938;SDS011;59064;45.294;11.816;2024-03-29T06:29:58;65.20;;;39.60;;
68938;SDS011;59064;45.294;11.816;2024-03-29T06:32:24;59.20;;;34.30;;
68938;SDS011;59064;45.294;11.816;2024-03-29T06:34:49;61.20;;;37.40;;
68938;SDS011;59064;45.294;11.816;2024-03-29T06:37:15;61.00;;;37.30;;
68938;SDS011;59064;45.294;11.816;2024-03-29T06:39:41;61.70;;;36.50;;
68938;SDS011;59064;45.294;11.816;2024-03-29T06:42:08;57.50;;;35.70;;
68938;SDS011;59064;45.294;11.816;2024-03-29T06:44:34;63.80;;;39.10;;
68938;SDS011;59064;45.294;11.816;2024-03-29T06:47:02;56.30;;;32.80;;
68938;SDS011;59064;45.294;11.816;2024-03-29T06:49:29;58.10;;;33.30;;
68938;SDS011;59064;45.294;11.816;2024-03-29T06:51:55;50.50;;;30.30;;
68938;SDS011;59064;45.294;11.816;2024-03-29T06:54:22;47.90;;;30.10;;
68938;SDS011;59064;45.294;11.816;2024-03-29T06:56:55;53.30;;;33.00;;
68938;SDS011;59064;45.294;11.816;2024-03-29T06:59:21;44.70;;;27.40;;
68938;SDS011;59064;45.294;11.816;2024-03-29T07:01:48;52.40;;;30.20;;
68938;SDS011;59064;45.294;11.816;2024-03-29T07:04:20;48.30;;;29.10;;
68938;SDS011;59064;45.294;11.816;2024-03-29T07:06:46;51.90;;;31.80;;
68938;SDS011;59064;45.294;11.816;2024-03-29T07:09:13;52.50;;;33.60;;
68938;SDS011;59064;45.294;11.816;2024-03-29T07:11:40;48.20;;;30.00;;
68938;SDS011;59064;45.294;11.816;2024-03-29T07:14:05;50.90;;;32.10;;
68938;SDS011;59064;45.294;11.816;2024-03-29T07:16:31;46.70;;;29.50;;
68938;SDS011;59064;45.294;11.816;2024-03-29T07:18:57;48.10;;;30.30;;
68938;SDS011;59064;45.294;11.816;2024-03-29T07:21:22;48.30;;;29.40;;
68938;SDS011;59064;45.294;11.816;2024-03-29T07:23:49;48.80;;;29.50;;
68938;SDS011;59064;45.294;11.816;2024-03-29T07:26:14;46.00;;;28.30;;
68938;SDS011;59064;45.294;11.816;2024-03-29T07:28:40;35.80;;;23.30;;
68938;SDS011;59064;45.294;11.816;2024-03-29T07:31:06;42.30;;;24.40;;
68938;SDS011;59064;45.294;11.816;2024-03-29T07:33:32;44.20;;;27.70;;
68938;SDS011;59064;45.294;11.816;2024-03-29T07:35:58;40.60;;;24.60;;
68938;SDS011;59064;45.294;11.816;2024-03-29T07:38:24;46.00;;;28.20;;
68938;SDS011;59064;45.294;11.816;2024-03-29T07:40:50;45.00;;;27.80;;
68938;SDS011;59064;45.294;11.816;2024-03-29T07:43:18;43.30;;;26.20;;
68938;SDS011;59064;45.294;11.816;2024-03-29T07:45:44;45.60;;;26.30;;
68938;SDS011;59064;45.294;11.816;2024-03-29T07:48:14;38.40;;;23.40;;
68938;SDS011;59064;45.294;11.816;2024-03-29T07:50:41;40.10;;;24.10;;
68938;SDS011;59064;45.294;11.816;2024-03-29T07:53:07;37.50;;;23.20;;
68938;SDS011;59064;45.294;11.816;2024-03-29T07:55:39;41.10;;;24.60;;
68938;SDS011;59064;45.294;11.816;2024-03-29T07:58:06;37.70;;;22.00;;
68938;SDS011;59064;45.294;11.816;2024-03-29T08:00:34;37.80;;;21.80;;
68938;SDS011;59064;45.294;11.816;2024-03-29T08:03:00;37.20;;;21.50;;
68938;SDS011;59064;45.294;11.816;2024-03-29T08:05:28;35.70;;;21.00;;
68938;SDS011;59064;45.294;11.816;2024-03-29T08:07:54;38.90;;;23.40;;
68938;SDS011;59064;45.294;11.816;2024-03-29T08:10:20;37.60;;;21.20;;
68938;SDS011;59064;45.294;11.816;2024-03-29T08:12:46;39.70;;;24.70;;
68938;SDS011;59064;45.294;11.816;2024-03-29T08:15:12;40.50;;;24.90;;
68938;SDS011;59064;45.294;11.816;2024-03-29T08:17:37;38.40;;;23.30;;
68938;SDS011;59064;45.294;11.816;2024-03-29T08:20:03;35.50;;;21.40;;
68938;SDS011;59064;45.294;11.816;2024-03-29T08:22:29;39.50;;;21.30;;
68938;SDS011;59064;45.294;11.816;2024-03-29T08:25:02;35.40;;;21.00;;
68938;SDS011;59064;45.294;11.816;2024-03-29T08:27:28;36.90;;;22.30;;
68938;SDS011;59064;45.294;11.816;2024-03-29T08:29:53;40.00;;;22.10;;
68938;SDS011;59064;45.294;11.816;2024-03-29T08:32:19;36.10;;;21.10;;
68938;SDS011;59064;45.294;11.816;2024-03-29T08:34:45;33.80;;;19.70;;
68938;SDS011;59064;45.294;11.816;2024-03-29T08:37:10;34.30;;;20.90;;
68938;SDS011;59064;45.294;11.816;2024-03-29T08:39:36;31.90;;;18.50;;
68938;SDS011;59064;45.294;11.816;2024-03-29T08:42:03;34.40;;;19.80;;
68938;SDS011;59064;45.294;11.816;2024-03-29T08:44:36;31.00;;;19.60;;
68938;SDS011;59064;45.294;11.816;2024-03-29T08:47:01;31.40;;;19.10;;
68938;SDS011;59064;45.294;11.816;2024-03-29T08:49:28;37.70;;;19.30;;
68938;SDS011;59064;45.294;11.816;2024-03-29T08:51:54;51.90;;;22.00;;
68938;SDS011;59064;45.294;11.816;2024-03-29T08:54:19;34.90;;;19.60;;
68938;SDS011;59064;45.294;11.816;2024-03-29T08:56:45;25.10;;;14.20;;
68938;SDS011;59064;45.294;11.816;2024-03-29T08:59:10;33.20;;;19.00;;
68938;SDS011;59064;45.294;11.816;2024-03-29T09:01:42;32.40;;;19.40;;
68938;SDS011;59064;45.294;11.816;2024-03-29T09:04:09;29.50;;;18.70;;
68938;SDS011;59064;45.294;11.816;2024-03-29T09:06:37;30.80;;;17.80;;
68938;SDS011;59064;45.294;11.816;2024-03-29T09:09:06;20.70;;;12.00;;
68938;SDS011;59064;45.294;11.816;2024-03-29T09:11:33;27.80;;;17.40;;
68938;SDS011;59064;45.294;11.816;2024-03-29T09:13:58;25.50;;;16.20;;
68938;SDS011;59064;45.294;11.816;2024-03-29T09:16:24;23.90;;;15.00;;
68938;SDS011;59064;45.294;11.816;2024-03-29T09:18:50;29.20;;;16.20;;
68938;SDS011;59064;45.294;11.816;2024-03-29T09:21:17;24.20;;;15.40;;
68938;SDS011;59064;45.294;11.816;2024-03-29T09:23:42;22.60;;;14.20;;
68938;SDS011;59064;45.294;11.816;2024-03-29T09:26:08;23.20;;;15.10;;
68938;SDS011;59064;45.294;11.816;2024-03-29T09:28:33;21.90;;;13.60;;
68938;SDS011;59064;45.294;11.816;2024-03-29T09:31:01;19.30;;;11.60;;
68938;SDS011;59064;45.294;11.816;2024-03-29T09:33:27;19.00;;;11.20;;
68938;SDS011;59064;45.294;11.816;2024-03-29T09:35:53;19.50;;;11.30;;
68938;SDS011;59064;45.294;11.816;2024-03-29T09:38:19;17.90;;;11.10;;
68938;SDS011;59064;45.294;11.816;2024-03-29T09:40:45;16.10;;;10.20;;
68938;SDS011;59064;45.294;11.816;2024-03-29T09:43:11;19.20;;;11.20;;
68938;SDS011;59064;45.294;11.816;2024-03-29T09:45:41;18.20;;;10.90;;
68938;SDS011;59064;45.294;11.816;2024-03-29T09:48:08;17.70;;;10.80;;
68938;SDS011;59064;45.294;11.816;2024-03-29T09:50:37;11.90;;;6.40;;
68938;SDS011;59064;45.294;11.816;2024-03-29T09:53:06;13.40;;;8.10;;
68938;SDS011;59064;45.294;11.816;2024-03-29T09:55:33;13.70;;;9.00;;
68938;SDS011;59064;45.294;11.816;2024-03-29T09:58:00;11.10;;;7.30;;
68938;SDS011;59064;45.294;11.816;2024-03-29T10:00:26;12.90;;;6.50;;
68938;SDS011;59064;45.294;11.816;2024-03-29T10:02:54;13.90;;;7.20;;
68938;SDS011;59064;45.294;11.816;2024-03-29T10:05:24;9.90;;;6.60;;
68938;SDS011;59064;45.294;11.816;2024-03-29T10:07:54;16.80;;;8.80;;
68938;SDS011;59064;45.294;11.816;2024-03-29T10:10:21;13.00;;;8.20;;
68938;SDS011;59064;45.294;11.816;2024-03-29T10:12:46;11.60;;;6.30;;
68938;SDS011;59064;45.294;11.816;2024-03-29T10:15:12;12.00;;;6.40;;
68938;SDS011;59064;45.294;11.816;2024-03-29T10:17:46;11.10;;;7.30;;
68938;SDS011;59064;45.294;11.816;2024-03-29T10:20:15;8.70;;;5.10;;
68938;SDS011;59064;45.294;11.816;2024-03-29T10:22:42;14.00;;;7.10;;
68938;SDS011;59064;45.294;11.816;2024-03-29T10:25:09;10.00;;;5.00;;
68938;SDS011;59064;45.294;11.816;2024-03-29T10:27:38;8.80;;;4.40;;
68938;SDS011;59064;45.294;11.816;2024-03-29T10:30:06;13.30;;;6.40;;
68938;SDS011;59064;45.294;11.816;2024-03-29T10:32:34;12.20;;;6.80;;
68938;SDS011;59064;45.294;11.816;2024-03-29T10:35:02;13.00;;;5.80;;
68938;SDS011;59064;45.294;11.816;2024-03-29T10:37:28;12.20;;;6.60;;
68938;SDS011;59064;45.294;11.816;2024-03-29T10:39:54;12.70;;;5.80;;
68938;SDS011;59064;45.294;11.816;2024-03-29T10:42:22;12.40;;;5.10;;
68938;SDS011;59064;45.294;11.816;2024-03-29T10:44:50;11.30;;;5.20;;
68938;SDS011;59064;45.294;11.816;2024-03-29T10:47:18;10.60;;;5.60;;
68938;SDS011;59064;45.294;11.816;2024-03-29T10:49:49;8.60;;;5.00;;
68938;SDS011;59064;45.294;11.816;2024-03-29T10:52:16;12.80;;;5.50;;
68938;SDS011;59064;45.294;11.816;2024-03-29T10:54:45;12.30;;;5.80;;
68938;SDS011;59064;45.294;11.816;2024-03-29T10:57:12;9.20;;;5.40;;
68938;SDS011;59064;45.294;11.816;2024-03-29T10:59:48;9.80;;;5.20;;
68938;SDS011;59064;45.294;11.816;2024-03-29T11:02:28;9.30;;;4.10;;
68938;SDS011;59064;45.294;11.816;2024-03-29T11:05:00;11.90;;;5.30;;
68938;SDS011;59064;45.294;11.816;2024-03-29T11:07:31;9.60;;;5.70;;
68938;SDS011;59064;45.294;11.816;2024-03-29T11:10:03;9.30;;;4.30;;
68938;SDS011;59064;45.294;11.816;2024-03-29T11:12:30;11.80;;;5.20;;
68938;SDS011;59064;45.294;11.816;2024-03-29T11:15:04;9.70;;;4.50;;
68938;SDS011;59064;45.294;11.816;2024-03-29T11:17:36;10.20;;;5.10;;
68938;SDS011;59064;45.294;11.816;2024-03-29T11:20:02;10.10;;;4.90;;
68938;SDS011;59064;45.294;11.816;2024-03-29T11:22:29;10.10;;;5.50;;
68938;SDS011;59064;45.294;11.816;2024-03-29T11:24:55;11.40;;;4.80;;
68938;SDS011;59064;45.294;11.816;2024-03-29T11:27:24;12.10;;;5.10;;
68938;SDS011;59064;45.294;11.816;2024-03-29T11:29:49;8.80;;;4.10;;
68938;SDS011;59064;45.294;11.816;2024-03-29T11:32:33;11.00;;;3.70;;
68938;SDS011;59064;45.294;11.816;2024-03-29T11:35:04;10.60;;;4.90;;
68938;SDS011;59064;45.294;11.816;2024-03-29T11:37:30;10.20;;;5.10;;
68938;SDS011;59064;45.294;11.816;2024-03-29T11:39:59;10.40;;;5.10;;
68938;SDS011;59064;45.294;11.816;2024-03-29T11:42:43;11.70;;;5.60;;
68938;SDS011;59064;45.294;11.816;2024-03-29T11:45:09;12.60;;;5.30;;
68938;SDS011;59064;45.294;11.816;2024-03-29T11:47:36;11.70;;;5.40;;
68938;SDS011;59064;45.294;11.816;2024-03-29T11:50:04;9.00;;;4.30;;
68938;SDS011;59064;45.294;11.816;2024-03-29T11:52:31;10.20;;;4.90;;
68938;SDS011;59064;45.294;11.816;2024-03-29T11:54:56;7.40;;;4.30;;
68938;SDS011;59064;45.294;11.816;2024-03-29T11:57:24;11.40;;;5.40;;
68938;SDS011;59064;45.294;11.816;2024-03-29T11:59:49;7.00;;;3.50;;
68938;SDS011;59064;45.294;11.816;2024-03-29T12:02:15;7.20;;;3.50;;
68938;SDS011;59064;45.294;11.816;2024-03-29T12:04:41;9.70;;;4.80;;
68938;SDS011;59064;45.294;11.816;2024-03-29T12:07:06;8.70;;;4.00;;
68938;SDS011;59064;45.294;11.816;2024-03-29T12:09:32;8.20;;;4.60;;
68938;SDS011;59064;45.294;11.816;2024-03-29T12:11:57;13.40;;;3.90;;
68938;SDS011;59064;45.294;11.816;2024-03-29T12:14:30;14.00;;;5.10;;
68938;SDS011;59064;45.294;11.816;2024-03-29T12:17:00;9.70;;;4.10;;
68938;SDS011;59064;45.294;11.816;2024-03-29T12:19:26;10.10;;;4.20;;
68938;SDS011;59064;45.294;11.816;2024-03-29T12:21:53;8.90;;;4.40;;
68938;SDS011;59064;45.294;11.816;2024-03-29T12:24:19;6.60;;;3.50;;
68938;SDS011;59064;45.294;11.816;2024-03-29T12:26:46;9.90;;;3.00;;
68938;SDS011;59064;45.294;11.816;2024-03-29T12:29:14;13.20;;;4.90;;
68938;SDS011;59064;45.294;11.816;2024-03-29T12:31:40;8.10;;;3.80;;
68938;SDS011;59064;45.294;11.816;2024-03-29T12:34:06;8.50;;;4.10;;
68938;SDS011;59064;45.294;11.816;2024-03-29T12:36:32;8.00;;;3.90;;
68938;SDS011;59064;45.294;11.816;2024-03-29T12:38:58;12.60;;;4.40;;
68938;SDS011;59064;45.294;11.816;2024-03-29T12:41:31;9.80;;;3.50;;
68938;SDS011;59064;45.294;11.816;2024-03-29T12:43:57;8.50;;;3.80;;
68938;SDS011;59064;45.294;11.816;2024-03-29T12:46:24;10.50;;;5.60;;
68938;SDS011;59064;45.294;11.816;2024-03-29T12:48:57;11.90;;;4.30;;
68938;SDS011;59064;45.294;11.816;2024-03-29T12:51:23;10.50;;;4.80;;
68938;SDS011;59064;45.294;11.816;2024-03-29T12:53:49;6.40;;;2.90;;
68938;SDS011;59064;45.294;11.816;2024-03-29T12:56:15;9.90;;;4.20;;
68938;SDS011;59064;45.294;11.816;2024-03-29T12:58:41;9.60;;;4.30;;
68938;SDS011;59064;45.294;11.816;2024-03-29T13:01:06;9.40;;;3.90;;
68938;SDS011;59064;45.294;11.816;2024-03-29T13:03:32;9.60;;;4.50;;
68938;SDS011;59064;45.294;11.816;2024-03-29T13:05:57;8.10;;;4.50;;
68938;SDS011;59064;45.294;11.816;2024-03-29T13:08:23;8.00;;;4.00;;
68938;SDS011;59064;45.294;11.816;2024-03-29T13:10:48;14.30;;;4.30;;
68938;SDS011;59064;45.294;11.816;2024-03-29T13:13:14;6.20;;;3.10;;
68938;SDS011;59064;45.294;11.816;2024-03-29T13:15:41;14.30;;;4.80;;
68938;SDS011;59064;45.294;11.816;2024-03-29T13:18:07;9.30;;;4.40;;
68938;SDS011;59064;45.294;11.816;2024-03-29T13:20:35;8.20;;;4.10;;
68938;SDS011;59064;45.294;11.816;2024-03-29T13:23:05;7.30;;;3.00;;
68938;SDS011;59064;45.294;11.816;2024-03-29T13:25:31;10.40;;;4.50;;
68938;SDS011;59064;45.294;11.816;2024-03-29T13:27:57;11.60;;;4.30;;
68938;SDS011;59064;45.294;11.816;2024-03-29T13:30:23;10.20;;;4.20;;
68938;SDS011;59064;45.294;11.816;2024-03-29T13:32:50;8.80;;;4.30;;
68938;SDS011;59064;45.294;11.816;2024-03-29T13:35:16;13.60;;;4.30;;
68938;SDS011;59064;45.294;11.816;2024-03-29T13:37:44;8.60;;;3.90;;
68938;SDS011;59064;45.294;11.816;2024-03-29T13:40:18;9.10;;;3.30;;
68938;SDS011;59064;45.294;11.816;2024-03-29T13:42:44;11.30;;;4.20;;
68938;SDS011;59064;45.294;11.816;2024-03-29T13:45:10;8.90;;;3.60;;
68938;SDS011;59064;45.294;11.816;2024-03-29T13:47:36;7.40;;;3.50;;
68938;SDS011;59064;45.294;11.816;2024-03-29T13:50:06;9.30;;;3.70;;
68938;SDS011;59064;45.294;11.816;2024-03-29T13:52:32;8.10;;;3.70;;
68938;SDS011;59064;45.294;11.816;2024-03-29T13:54:59;8.00;;;3.80;;
68938;SDS011;59064;45.294;11.816;2024-03-29T13:57:25;10.50;;;3.20;;
68938;SDS011;59064;45.294;11.816;2024-03-29T13:59:50;8.20;;;3.30;;
68938;SDS011;59064;45.294;11.816;2024-03-29T14:02:16;5.90;;;2.40;;
68938;SDS011;59064;45.294;11.816;2024-03-29T14:04:43;6.50;;;2.50;;
68938;SDS011;59064;45.294;11.816;2024-03-29T14:07:10;9.60;;;3.80;;
68938;SDS011;59064;45.294;11.816;2024-03-29T14:09:37;8.70;;;3.90;;
68938;SDS011;59064;45.294;11.816;2024-03-29T14:12:06;6.20;;;2.90;;
68938;SDS011;59064;45.294;11.816;2024-03-29T14:14:32;9.70;;;3.50;;
68938;SDS011;59064;45.294;11.816;2024-03-29T14:16:58;10.50;;;2.50;;
68938;SDS011;59064;45.294;11.816;2024-03-29T14:19:29;11.20;;;3.90;;
68938;SDS011;59064;45.294;11.816;2024-03-29T14:21:55;10.80;;;3.40;;